Time;durP1;ratioP1;P1;durP2;ratioP2;P2;SDS_P1;SDS_P2;PMS_P1;PMS_P2;Temp;Humidity;BMP_temperature;BMP_pressure;BME280_temperature;BME280_humidity;BME280_pressure;Samples;Min_cycle;Max_cycle;Signal;HPM_P1;HPM_P2
2023/08/08 00:01:55;;;;;;;14.63;3.20;;;14.50;99.90;;;13.40;85.21;100043.47;4938019;28;20158;-75
2023/08/08 00:04:21;;;;;;;17.73;3.83;;;14.50;99.90;;;13.38;85.12;100038.28;4928579;28;20049;-76
2023/08/08 00:06:47;;;;;;;27.20;4.50;;;14.50;99.90;;;13.38;84.90;100040.94;4913174;28;20790;-75
2023/08/08 00:09:13;;;;;;;19.50;3.80;;;14.50;99.90;;;13.37;84.96;100036.59;4939409;28;20057;-75
2023/08/08 00:11:39;;;;;;;18.00;4.18;;;14.50;99.90;;;13.33;85.05;100040.41;4907551;28;20565;-75
2023/08/08 00:14:05;;;;;;;13.30;3.30;;;14.40;99.90;;;13.28;85.63;100037.19;4918719;28;20039;-75
2023/08/08 00:16:30;;;;;;;20.70;4.10;;;14.40;99.90;;;13.26;85.79;100037.31;4916193;28;20568;-75
2023/08/08 00:18:56;;;;;;;20.58;4.20;;;14.40;99.90;;;13.24;86.09;100035.69;4911317;29;20051;-75
2023/08/08 00:21:22;;;;;;;18.67;3.85;;;14.40;99.90;;;13.23;86.71;100020.81;4906150;28;20032;-74
2023/08/08 00:23:48;;;;;;;17.42;3.65;;;14.40;99.90;;;13.24;86.77;100022.50;4916544;28;20066;-75
2023/08/08 00:26:14;;;;;;;17.45;3.63;;;14.40;99.90;;;13.27;86.69;100015.19;4912474;28;20039;-76
2023/08/08 00:28:40;;;;;;;22.17;3.88;;;14.40;99.90;;;13.29;86.50;100012.50;4934688;28;20032;-75
2023/08/08 00:31:06;;;;;;;14.23;3.47;;;14.40;99.90;;;13.27;86.76;99996.69;4929380;28;20043;-76
2023/08/08 00:33:31;;;;;;;29.95;3.92;;;14.40;99.90;;;13.29;86.93;100021.25;4950229;28;20035;-75
2023/08/08 00:35:57;;;;;;;19.30;3.83;;;14.40;99.90;;;13.27;87.05;100014.38;4920607;28;20034;-75
2023/08/08 00:38:23;;;;;;;16.98;3.45;;;14.40;99.90;;;13.30;87.42;100022.97;4917087;28;20031;-75
2023/08/08 00:40:49;;;;;;;25.33;4.10;;;14.40;99.90;;;13.27;87.34;100001.97;4924924;28;20128;-75
2023/08/08 00:43:14;;;;;;;19.08;4.90;;;14.40;99.90;;;13.30;87.23;100004.47;4949033;28;20444;-75
2023/08/08 00:45:43;;;;;;;22.83;4.18;;;14.40;99.90;;;13.29;87.16;100010.69;4907689;28;20433;-75
2023/08/08 00:48:09;;;;;;;17.02;3.60;;;14.50;99.90;;;13.34;87.29;100005.06;4918220;28;20055;-75
2023/08/08 00:50:37;;;;;;;21.00;4.03;;;14.40;99.90;;;13.35;87.10;100014.72;4927376;28;20093;-75
2023/08/08 00:53:04;;;;;;;14.40;3.17;;;14.50;99.90;;;13.33;87.46;100013.97;4907900;28;20069;-75
2023/08/08 00:55:31;;;;;;;13.65;3.28;;;14.50;99.90;;;13.34;87.13;100015.66;4948155;28;20110;-74
2023/08/08 00:57:57;;;;;;;19.20;4.10;;;14.40;99.90;;;13.31;87.10;100008.78;4933083;28;20114;-75
2023/08/08 01:00:22;;;;;;;13.82;3.33;;;14.40;99.90;;;13.30;86.84;100009.75;4921116;28;20034;-75
2023/08/08 01:02:48;;;;;;;19.48;4.05;;;14.40;99.90;;;13.26;87.08;100015.28;4928807;28;20032;-76
2023/08/08 01:05:14;;;;;;;17.95;3.83;;;14.40;99.90;;;13.20;86.81;99997.25;4939113;28;20043;-75
2023/08/08 01:07:48;;;;;;;17.30;3.33;;;14.30;99.90;;;13.11;86.78;100004.00;4929689;28;20081;-75
2023/08/08 01:10:38;;;;;;;19.00;3.55;;;14.30;99.90;;;13.05;87.03;99993.84;4932233;28;20078;-75
2023/08/08 01:13:15;;;;;;;15.65;2.90;;;14.20;99.90;;;13.00;87.21;99994.19;4919594;28;20054;-75
2023/08/08 01:15:41;;;;;;;18.10;3.00;;;14.20;99.90;;;12.99;87.55;99995.09;4920317;28;20503;-74
2023/08/08 01:18:09;;;;;;;13.48;3.33;;;14.10;99.90;;;12.96;87.45;99997.09;4913009;28;20048;-75
2023/08/08 01:20:36;;;;;;;11.88;3.53;;;14.30;99.90;;;13.00;87.50;100004.75;4935092;28;20038;-75
2023/08/08 01:23:53;;;;;;;10.23;2.08;;;14.20;99.90;;;12.97;87.36;100007.56;4938209;28;20077;-75
2023/08/08 01:26:21;;;;;;;14.77;3.20;;;14.10;99.90;;;12.92;86.98;99996.47;4941010;28;20415;-75
2023/08/08 01:28:47;;;;;;;17.38;3.13;;;14.10;99.90;;;12.88;86.69;100001.13;4926788;28;20033;-75
2023/08/08 01:31:13;;;;;;;13.90;2.65;;;14.00;99.90;;;12.82;87.23;99998.88;4938429;28;20100;-75
2023/08/08 01:33:41;;;;;;;12.63;2.90;;;14.00;99.90;;;12.72;87.72;99992.53;4936740;28;20039;-76
2023/08/08 01:36:21;;;;;;;13.52;2.90;;;13.90;99.90;;;12.67;87.90;99994.63;4940153;28;20042;-75
2023/08/08 01:38:51;;;;;;;14.60;3.08;;;13.90;99.90;;;12.60;87.93;99974.88;4952690;28;20504;-75
2023/08/08 01:41:18;;;;;;;13.40;3.20;;;13.80;99.90;;;12.61;88.56;99981.84;4916593;28;20129;-75
2023/08/08 01:43:45;;;;;;;12.70;2.80;;;13.80;99.90;;;12.63;88.70;99983.41;4913185;28;20043;-75
2023/08/08 01:46:11;;;;;;;11.65;2.53;;;13.80;99.90;;;12.67;88.24;99979.63;4896197;28;20059;-75
2023/08/08 01:48:37;;;;;;;12.50;2.90;;;13.90;99.90;;;12.77;87.92;99998.38;4929103;28;20035;-75
2023/08/08 01:51:03;;;;;;;10.73;2.70;;;13.90;99.90;;;12.79;88.11;99990.34;4901053;28;20603;-75
2023/08/08 01:53:29;;;;;;;12.57;2.35;;;13.90;99.90;;;12.80;87.70;99992.03;4914471;28;20050;-75
2023/08/08 01:55:54;;;;;;;7.95;2.10;;;13.90;99.90;;;12.81;87.26;99984.00;4927428;28;20045;-75
2023/08/08 01:58:20;;;;;;;17.45;3.15;;;14.00;99.90;;;12.80;87.84;99992.84;4936359;28;20503;-75
2023/08/08 02:00:47;;;;;;;13.93;2.50;;;14.00;99.90;;;12.82;87.62;99990.97;4918511;28;20043;-75
2023/08/08 02:03:20;;;;;;;14.07;2.70;;;14.00;99.90;;;12.82;88.04;99993.59;4911718;28;20031;-75
2023/08/08 02:05:46;;;;;;;19.35;2.95;;;14.00;99.90;;;12.79;88.23;99985.91;4926421;28;20126;-75
2023/08/08 02:08:12;;;;;;;18.58;3.00;;;14.00;99.90;;;12.80;87.86;99976.16;4951578;28;20569;-75
2023/08/08 02:10:38;;;;;;;14.82;2.50;;;14.00;99.90;;;12.80;87.40;99979.66;4949816;28;20039;-75
2023/08/08 02:13:04;;;;;;;13.63;2.40;;;14.00;99.90;;;12.82;87.20;99974.28;4918998;28;20058;-75
2023/08/08 02:15:30;;;;;;;15.68;2.40;;;14.00;99.90;;;12.85;87.08;99984.63;4919141;28;20103;-75
2023/08/08 02:17:56;;;;;;;13.27;3.00;;;14.00;99.90;;;12.87;87.10;99973.03;4927549;28;20027;-76
2023/08/08 02:20:21;;;;;;;7.60;2.22;;;14.00;99.90;;;12.90;86.98;99975.44;4953481;28;20039;-75
2023/08/08 02:22:47;;;;;;;14.63;2.83;;;14.00;99.90;;;12.89;86.25;99965.84;4910608;28;20167;-75
2023/08/08 02:25:13;;;;;;;18.60;2.90;;;14.00;99.90;;;12.89;85.88;99976.41;4936845;28;20139;-75
2023/08/08 02:27:39;;;;;;;9.48;1.90;;;14.00;99.90;;;12.82;86.11;99974.28;4926337;28;20039;-76
2023/08/08 02:30:05;;;;;;;20.17;2.90;;;13.90;99.90;;;12.72;85.99;99972.25;4917721;28;20051;-76
2023/08/08 02:32:31;;;;;;;19.45;2.90;;;13.90;99.90;;;12.67;85.93;99976.16;4952775;28;20026;-75
2023/08/08 02:34:57;;;;;;;7.88;2.00;;;13.80;99.90;;;12.56;86.34;99978.66;4934075;28;20752;-75
2023/08/08 02:37:23;;;;;;;10.15;2.85;;;13.70;99.90;;;12.51;86.44;99979.81;4944885;28;20070;-75
2023/08/08 02:39:49;;;;;;;10.50;2.53;;;13.70;99.90;;;12.45;86.89;99993.44;4911081;28;20047;-75
2023/08/08 02:42:15;;;;;;;7.57;1.98;;;13.60;99.90;;;12.42;86.80;99995.41;4941673;28;20610;-75
2023/08/08 02:44:41;;;;;;;10.95;2.40;;;13.60;99.90;;;12.36;87.21;99991.41;4936789;28;20129;-75
2023/08/08 02:47:06;;;;;;;7.20;1.90;;;13.50;99.90;;;12.29;87.40;99998.88;4909620;28;20125;-75
2023/08/08 02:49:33;;;;;;;9.82;2.35;;;13.50;99.90;;;12.25;87.00;99997.38;4936021;28;20399;-75
2023/08/08 02:52:00;;;;;;;11.02;2.30;;;13.50;99.90;;;12.25;87.77;99996.53;4934560;28;20073;-75
2023/08/08 02:54:33;;;;;;;15.50;2.58;;;13.40;99.90;;;12.21;87.63;99990.59;4927880;28;20502;-75
2023/08/08 02:56:59;;;;;;;12.35;2.47;;;13.40;99.90;;;12.17;88.35;99997.03;4911949;28;20498;-75
2023/08/08 02:59:24;;;;;;;10.07;2.22;;;13.40;99.90;;;12.13;88.34;99998.16;4955573;28;20126;-75
2023/08/08 03:01:50;;;;;;;13.35;2.55;;;13.30;99.90;;;12.09;88.24;100000.19;4928007;28;20495;-75
2023/08/08 03:04:16;;;;;;;12.63;2.75;;;13.30;99.90;;;12.08;88.50;99992.34;4936515;28;20532;-75
2023/08/08 03:06:42;;;;;;;9.80;2.00;;;13.30;99.90;;;12.05;88.87;99993.41;4926606;28;20062;-75
2023/08/08 03:09:08;;;;;;;15.38;2.35;;;13.30;99.90;;;12.04;88.95;100007.53;4918302;28;20119;-75
2023/08/08 03:11:34;;;;;;;11.13;2.88;;;13.20;99.90;;;12.01;88.88;100005.09;4915580;28;20115;-75
2023/08/08 03:13:59;;;;;;;9.32;2.10;;;13.20;99.90;;;11.99;89.03;100001.69;4920613;28;20026;-74
2023/08/08 03:16:25;;;;;;;7.28;2.25;;;13.20;99.90;;;11.97;89.38;99997.47;4935736;28;20062;-75
2023/08/08 03:18:51;;;;;;;10.38;2.22;;;13.20;99.90;;;11.96;89.16;99995.78;4932931;28;20074;-75
2023/08/08 03:21:17;;;;;;;12.57;2.53;;;13.10;99.90;;;11.95;89.31;99997.56;4943391;28;20039;-75
2023/08/08 03:23:44;;;;;;;11.20;2.35;;;13.10;99.90;;;11.97;89.29;99994.84;4919388;28;20075;-75
2023/08/08 03:26:13;;;;;;;13.93;2.58;;;13.10;99.90;;;11.98;88.95;99996.53;4915901;28;20047;-74
2023/08/08 03:28:39;;;;;;;9.77;2.45;;;13.10;99.90;;;11.96;88.70;100008.97;4922571;28;20052;-74
2023/08/08 03:31:04;;;;;;;10.80;2.80;;;13.10;99.90;;;11.93;89.06;100002.09;4925796;28;20134;-75
2023/08/08 03:33:30;;;;;;;10.82;2.33;;;13.10;99.90;;;11.91;89.28;100006.63;4930477;28;20122;-75
2023/08/08 03:35:56;;;;;;;16.88;2.50;;;13.10;99.90;;;11.92;89.09;100000.38;4924891;28;20054;-75
2023/08/08 03:38:22;;;;;;;14.82;1.88;;;13.00;99.90;;;11.89;89.35;99992.69;4925134;28;20139;-75
2023/08/08 03:40:48;;;;;;;8.90;2.10;;;13.10;99.90;;;11.88;89.59;100006.81;4939557;28;20027;-75
2023/08/08 03:43:13;;;;;;;13.20;3.03;;;13.10;99.90;;;11.90;89.51;100002.31;4933472;28;20031;-75
2023/08/08 03:45:42;;;;;;;17.05;2.97;;;13.10;99.90;;;11.92;89.86;99997.75;4949224;28;20130;-75
2023/08/08 03:48:08;;;;;;;11.90;2.10;;;13.10;99.90;;;11.93;90.02;100001.25;4943371;28;20035;-75
2023/08/08 03:50:33;;;;;;;9.98;2.05;;;13.10;99.90;;;11.93;89.48;100006.53;4950110;28;20039;-75
2023/08/08 03:52:59;;;;;;;7.93;2.13;;;13.10;99.90;;;11.92;90.22;100007.47;4931946;28;20098;-75
2023/08/08 03:55:25;;;;;;;13.80;2.45;;;13.10;99.90;;;11.97;90.28;100011.50;4936386;28;20043;-75
2023/08/08 03:57:51;;;;;;;11.63;2.38;;;13.10;99.90;;;12.00;90.76;100016.56;4934670;28;20492;-75
2023/08/08 04:00:17;;;;;;;8.35;2.33;;;13.20;99.90;;;12.07;90.29;100024.94;4927689;28;20043;-76
2023/08/08 04:02:43;;;;;;;8.38;2.13;;;13.20;99.90;;;12.09;90.01;100018.66;4953733;28;20659;-76
2023/08/08 04:05:08;;;;;;;7.20;2.22;;;13.20;99.90;;;12.09;90.30;100016.00;4920348;28;20122;-75
2023/08/08 04:07:34;;;;;;;14.43;3.50;;;13.20;99.90;;;12.13;90.37;100026.34;4941402;28;20039;-75
2023/08/08 04:10:00;;;;;;;12.65;2.78;;;13.30;99.90;;;12.19;90.19;100028.59;4952910;28;20619;-76
2023/08/08 04:12:26;;;;;;;8.13;2.58;;;13.30;99.90;;;12.35;89.70;100037.22;4923791;28;20094;-75
2023/08/08 04:14:52;;;;;;;7.50;2.42;;;13.40;99.90;;;12.46;88.80;100031.22;4935705;28;20042;-76
2023/08/08 04:17:18;;;;;;;12.13;2.70;;;13.50;99.90;;;12.61;88.10;100038.16;4949606;28;20038;-75
2023/08/08 04:19:43;;;;;;;14.30;2.60;;;13.80;99.90;;;12.91;86.92;100030.00;4953164;28;20525;-75
2023/08/08 04:22:10;;;;;;;11.25;2.60;;;13.90;99.90;;;13.06;85.91;100032.53;4947965;28;20570;-75
2023/08/08 04:24:36;;;;;;;8.70;2.03;;;14.50;99.90;;;13.95;83.30;100031.63;4951048;28;20051;-75
2023/08/08 04:27:02;;;;;;;9.77;2.40;;;15.10;99.90;;;14.70;80.02;100047.34;4922348;28;20133;-75
2023/08/08 04:29:28;;;;;;;9.23;2.33;;;15.70;99.90;;;15.60;76.61;100057.34;4934898;28;20039;-75
2023/08/08 04:31:53;;;;;;;10.75;2.88;;;16.70;99.90;;;16.98;71.84;100075.44;4950455;28;20059;-76
2023/08/08 04:34:19;;;;;;;12.10;2.22;;;17.70;99.90;;;18.15;67.49;100084.06;4920368;28;20583;-76
2023/08/08 04:36:45;;;;;;;16.00;2.88;;;18.50;99.90;;;19.06;64.36;100089.22;4896630;28;20541;-75
2023/08/08 04:39:10;;;;;;;11.20;2.80;;;19.30;99.90;;;19.91;61.68;100106.19;4915067;28;20074;-75
2023/08/08 04:41:39;;;;;;;11.70;2.30;;;20.00;99.90;;;20.64;59.32;100116.09;4922061;28;20039;-76
2023/08/08 04:44:05;;;;;;;14.52;2.60;;;20.50;99.90;;;21.32;57.22;100118.22;4919166;28;20410;-75
2023/08/08 04:46:31;;;;;;;10.00;2.67;;;21.00;99.90;;;21.76;55.91;100126.22;4941205;28;20054;-76
2023/08/08 04:48:56;;;;;;;14.80;2.58;;;21.30;99.90;;;22.22;54.68;100134.88;4953655;28;20147;-76
2023/08/08 04:51:22;;;;;;;10.05;2.83;;;21.50;99.90;;;22.38;53.87;100141.31;4927104;28;20055;-75
2023/08/08 04:53:48;;;;;;;10.75;2.42;;;21.60;99.90;;;22.34;54.04;100145.31;4925383;28;20111;-75
2023/08/08 04:56:13;;;;;;;13.77;2.38;;;21.20;99.90;;;20.83;56.11;100115.13;4917501;28;20114;-76
2023/08/08 04:58:39;;;;;;;10.85;2.38;;;21.00;99.90;;;20.12;56.90;100118.50;4924164;28;20496;-75
2023/08/08 05:01:05;;;;;;;15.23;2.80;;;20.30;99.90;;;20.05;58.08;100110.22;4916393;28;20028;-75
2023/08/08 05:03:33;;;;;;;11.80;2.30;;;20.70;99.90;;;22.26;54.23;100146.94;4926363;28;20799;-75
2023/08/08 05:05:59;;;;;;;10.55;2.70;;;21.10;99.90;;;23.00;52.30;100162.41;4933981;28;20054;-75
2023/08/08 05:08:26;;;;;;;11.38;2.92;;;21.60;99.90;;;23.79;51.01;100179.75;4940199;28;20027;-76
2023/08/08 05:10:51;;;;;;;9.30;2.05;;;22.40;99.90;;;25.22;47.97;100200.38;4934121;28;20023;-75
2023/08/08 05:13:17;;;;;;;6.85;2.35;;;23.00;99.90;;;24.36;47.76;100192.19;4923050;28;20053;-75
2023/08/08 05:15:43;;;;;;;10.13;2.22;;;22.50;99.90;;;22.38;51.03;100176.19;4930473;28;20102;-76
2023/08/08 05:18:09;;;;;;;8.23;2.10;;;22.00;99.90;;;23.43;50.52;100180.09;4909628;28;20035;-75
2023/08/08 05:20:34;;;;;;;8.82;2.00;;;22.60;99.90;;;25.17;46.65;100217.03;4930427;28;20069;-76
2023/08/08 05:23:00;;;;;;;13.10;2.22;;;22.20;99.90;;;21.84;52.01;100171.84;4923116;28;20039;-75
2023/08/08 05:25:26;;;;;;;7.22;1.92;;;21.50;99.90;;;21.01;55.06;100164.13;4920424;28;20036;-75
2023/08/08 05:27:53;;;;;;;10.65;2.55;;;20.90;99.90;;;19.95;56.42;100138.81;4913760;28;20203;-76
2023/08/08 05:30:19;;;;;;;13.15;2.28;;;20.70;99.90;;;20.82;54.71;100150.88;4928764;28;20553;-76
2023/08/08 05:32:44;;;;;;;8.05;2.22;;;20.40;99.90;;;20.01;56.30;100139.06;4923241;28;20047;-76
2023/08/08 05:35:10;;;;;;;10.45;2.63;;;19.80;99.90;;;18.46;60.18;100110.63;4923622;28;20562;-76
2023/08/08 05:37:38;;;;;;;10.65;2.30;;;19.10;99.90;;;17.49;63.44;100102.22;4914326;28;20633;-75
2023/08/08 05:40:06;;;;;;;13.15;2.17;;;18.50;99.90;;;16.73;65.13;100111.16;4934395;28;20494;-75
2023/08/08 05:42:32;;;;;;;6.05;1.80;;;18.00;99.90;;;16.53;66.60;100107.47;4925846;28;20422;-75
2023/08/08 05:44:58;;;;;;;13.07;2.38;;;18.20;99.90;;;20.92;59.33;100154.34;4952002;28;20034;-75
2023/08/08 05:47:24;;;;;;;10.32;1.90;;;19.40;99.90;;;23.65;51.97;100181.28;4942353;28;20037;-75
2023/08/08 05:49:50;;;;;;;5.82;1.63;;;21.20;99.90;;;25.46;46.11;100210.13;4947228;28;20089;-76
2023/08/08 05:52:16;;;;;;;9.27;2.05;;;22.50;99.90;;;26.78;44.44;100230.19;4950456;28;20155;-75
2023/08/08 05:54:43;;;;;;;11.50;2.50;;;23.10;99.90;;;24.41;47.12;100205.16;4928145;28;20059;-75
2023/08/08 05:57:09;;;;;;;7.38;1.63;;;22.90;99.90;;;23.64;49.70;100194.88;4926894;28;20031;-76
2023/08/08 05:59:35;;;;;;;8.35;1.83;;;22.30;99.90;;;21.57;52.59;100169.31;4928751;28;20387;-75
2023/08/08 06:02:01;;;;;;;11.77;2.00;;;21.80;99.90;;;21.27;53.37;100164.22;4936194;28;20035;-75
2023/08/08 06:04:27;;;;;;;9.55;2.17;;;21.70;99.90;;;22.52;51.41;100186.28;4936672;28;20082;-76
2023/08/08 06:06:52;;;;;;;9.55;2.30;;;21.90;99.90;;;24.56;48.95;100211.50;4925419;28;20043;-75
2023/08/08 06:09:19;;;;;;;11.50;2.33;;;22.80;99.90;;;25.08;46.28;100220.81;4938387;28;20039;-75
2023/08/08 06:11:47;;;;;;;9.80;2.05;;;23.50;99.90;;;24.45;46.91;100215.38;4933724;28;20035;-76
2023/08/08 06:14:13;;;;;;;8.10;1.80;;;23.10;99.90;;;22.05;51.14;100190.25;4942839;28;20043;-75
2023/08/08 06:16:38;;;;;;;13.30;1.80;;;22.40;99.90;;;21.01;53.83;100174.81;4904566;28;20039;-75
2023/08/08 06:19:05;;;;;;;7.75;1.60;;;21.50;99.90;;;19.82;56.42;100158.66;4936320;28;20169;-75
2023/08/08 06:21:30;;;;;;;9.48;1.60;;;20.70;99.90;;;18.75;59.51;100150.69;4918801;28;20057;-75
2023/08/08 06:23:56;;;;;;;4.75;1.60;;;19.80;99.90;;;18.09;61.47;100142.38;4944705;28;20503;-75
2023/08/08 06:26:22;;;;;;;9.15;2.15;;;19.30;99.90;;;18.27;62.32;100142.56;4948870;28;20030;-75
2023/08/08 06:28:50;;;;;;;8.43;1.92;;;19.40;99.90;;;19.67;58.85;100152.94;4943545;28;20031;-76
2023/08/08 06:31:18;;;;;;;9.20;1.77;;;19.70;99.90;;;19.85;58.46;100161.06;4921721;28;20053;-75
2023/08/08 06:33:44;;;;;;;5.22;1.52;;;20.10;99.90;;;20.74;55.90;100156.16;4929399;28;20059;-76
2023/08/08 06:36:10;;;;;;;6.05;1.55;;;20.20;99.90;;;19.66;58.33;100139.72;4934700;28;20127;-75
2023/08/08 06:38:35;;;;;;;6.68;1.55;;;20.00;99.90;;;19.44;59.94;100131.03;4927857;28;20545;-75
2023/08/08 06:41:03;;;;;;;14.48;2.20;;;19.70;99.90;;;18.67;60.93;100133.69;4922553;28;20458;-75
2023/08/08 06:43:30;;;;;;;7.30;1.88;;;19.30;99.90;;;18.14;62.36;100129.47;4927710;28;20034;-75
2023/08/08 06:45:56;;;;;;;6.30;1.60;;;19.00;99.90;;;17.76;63.84;100109.66;4915847;28;20050;-75
2023/08/08 06:48:22;;;;;;;10.88;1.80;;;18.70;99.90;;;17.68;64.26;100117.47;4918370;28;20524;-76
2023/08/08 06:50:48;;;;;;;9.25;1.85;;;18.70;99.90;;;17.72;64.09;100113.56;4928038;28;20065;-75
2023/08/08 06:53:14;;;;;;;10.27;1.45;;;18.50;99.90;;;17.54;65.23;100121.31;4934881;28;20047;-75
2023/08/08 06:55:41;;;;;;;7.38;1.70;;;18.40;99.90;;;17.10;65.82;100101.97;4907802;28;20099;-77
2023/08/08 06:58:07;;;;;;;9.10;1.60;;;18.10;99.90;;;16.87;66.65;100109.19;4925444;28;20114;-78
2023/08/08 07:00:33;;;;;;;6.05;1.85;;;17.90;99.90;;;16.59;67.49;100112.28;4906731;28;20118;-77
2023/08/08 07:03:01;;;;;;;6.85;1.85;;;17.70;99.90;;;16.66;68.24;100114.44;4926332;28;20062;-77
2023/08/08 07:05:27;;;;;;;6.05;1.90;;;17.60;99.90;;;16.67;68.71;100119.63;4923328;29;20099;-77
2023/08/08 07:07:53;;;;;;;9.93;1.75;;;17.60;99.90;;;16.84;68.65;100122.75;4914963;28;20495;-77
2023/08/08 07:10:19;;;;;;;5.47;1.40;;;17.60;99.90;;;17.01;68.30;100120.38;4926264;28;20043;-77
2023/08/08 07:12:45;;;;;;;11.57;1.90;;;17.80;99.90;;;17.11;68.11;100123.13;4936489;28;20030;-77
2023/08/08 07:15:11;;;;;;;5.80;1.52;;;18.00;99.90;;;17.72;66.21;100118.91;4910517;28;20118;-77
2023/08/08 07:17:42;;;;;;;7.63;1.40;;;18.80;99.90;;;20.18;60.88;100134.78;4933032;28;20501;-77
2023/08/08 07:20:08;;;;;;;7.05;1.38;;;19.70;99.90;;;19.81;60.63;100132.94;4955639;28;20038;-77
2023/08/08 07:22:34;;;;;;;5.78;1.30;;;20.20;99.90;;;20.32;59.26;100140.59;4937098;28;20059;-77
2023/08/08 07:25:00;;;;;;;5.85;1.90;;;20.20;99.90;;;19.49;59.71;100121.75;4939085;28;20069;-78
2023/08/08 07:27:27;;;;;;;15.57;2.03;;;20.40;99.90;;;20.08;58.59;100131.28;4935786;28;20027;-77
2023/08/08 07:30:02;;;;;;;6.53;1.20;;;20.70;99.90;;;21.00;57.22;100133.00;4943402;28;20043;-77
2023/08/08 07:32:28;;;;;;;11.50;1.50;;;21.10;99.90;;;21.41;55.77;100157.47;4936742;28;20039;-77
2023/08/08 07:34:53;;;;;;;9.70;1.70;;;21.50;99.90;;;21.29;55.27;100147.97;4944848;28;20052;-78
2023/08/08 07:37:19;;;;;;;6.80;1.38;;;21.50;99.90;;;20.61;56.54;100146.66;4934869;28;20074;-76
2023/08/08 07:39:45;;;;;;;3.88;1.20;;;21.00;99.90;;;19.48;58.86;100126.25;4940022;28;20043;-76
2023/08/08 07:42:11;;;;;;;4.43;1.23;;;20.40;99.90;;;18.71;60.58;100124.44;4943402;28;20553;-76
2023/08/08 07:44:38;;;;;;;10.90;1.48;;;19.80;99.90;;;18.43;61.76;100118.91;4922548;28;20046;-76
2023/08/08 07:47:04;;;;;;;7.55;1.30;;;19.50;99.90;;;18.14;62.46;100118.81;4930813;28;20094;-75
2023/08/08 07:49:30;;;;;;;7.32;1.48;;;19.20;99.90;;;17.98;63.25;100127.31;4937069;28;20039;-76
2023/08/08 07:51:56;;;;;;;7.30;1.40;;;18.90;99.90;;;17.86;63.58;100115.06;4945279;28;20037;-76
2023/08/08 07:54:22;;;;;;;10.43;1.30;;;18.90;99.90;;;18.32;63.44;100111.03;4927583;28;20115;-75
2023/08/08 07:56:50;;;;;;;4.28;1.15;;;19.00;99.90;;;18.36;63.53;100118.63;4946163;28;20031;-76
2023/08/08 07:59:16;;;;;;;10.45;1.65;;;19.10;99.90;;;18.26;63.24;100119.56;4922469;28;20044;-76
2023/08/08 08:01:42;;;;;;;4.35;1.20;;;19.30;99.90;;;19.09;61.31;100125.44;4884907;28;20048;-76
2023/08/08 08:04:07;;;;;;;8.43;1.52;;;19.60;99.90;;;19.29;61.31;100126.28;4918816;28;20060;-76
2023/08/08 08:06:33;;;;;;;4.40;1.30;;;19.70;99.90;;;19.20;61.02;100125.28;4951342;28;20046;-75
2023/08/08 08:08:59;;;;;;;8.68;1.27;;;19.70;99.90;;;18.82;61.54;100119.00;4920068;28;20034;-76
2023/08/08 08:11:25;;;;;;;12.75;1.30;;;19.50;99.90;;;18.34;62.31;100099.25;4920852;28;20411;-76
2023/08/08 08:13:51;;;;;;;10.43;1.23;;;19.20;99.90;;;17.97;63.31;100101.63;4914591;28;20043;-76
2023/08/08 08:16:17;;;;;;;9.52;1.38;;;19.00;99.90;;;18.00;63.46;100112.03;4917295;28;20498;-76
2023/08/08 08:18:42;;;;;;;5.22;1.42;;;19.00;99.90;;;18.19;63.66;100112.13;4943255;28;20046;-76
2023/08/08 08:21:12;;;;;;;5.53;1.23;;;19.00;99.90;;;18.47;63.27;100095.50;4949025;28;20085;-76
2023/08/08 08:23:38;;;;;;;6.63;1.30;;;19.20;99.90;;;18.90;62.50;100103.16;4935990;28;20648;-75
2023/08/08 08:26:04;;;;;;;8.80;1.42;;;19.50;99.90;;;18.99;61.55;100112.13;4913780;28;20035;-76
2023/08/08 08:28:30;;;;;;;8.80;1.40;;;19.70;99.90;;;19.64;60.46;100117.66;4935872;28;20461;-76
2023/08/08 08:30:56;;;;;;;6.50;1.67;;;20.40;99.90;;;21.01;58.25;100125.81;4918822;28;20055;-76
2023/08/08 08:33:24;;;;;;;6.10;1.20;;;21.30;99.90;;;21.76;55.89;100141.47;4887170;28;20042;-76
2023/08/08 08:35:49;;;;;;;7.25;1.25;;;21.70;99.90;;;21.03;55.77;100134.53;4919124;28;20050;-76
2023/08/08 08:38:15;;;;;;;13.10;1.45;;;21.50;99.90;;;20.38;57.50;100129.31;4926106;28;20411;-76
2023/08/08 08:40:44;;;;;;;6.53;1.27;;;21.00;99.90;;;19.65;58.95;100117.50;4954123;28;20463;-76
2023/08/08 08:43:10;;;;;;;9.23;1.45;;;20.60;99.90;;;19.54;59.69;100124.84;4926547;28;20027;-76
2023/08/08 08:45:39;;;;;;;9.02;1.38;;;20.30;99.90;;;19.31;60.84;100111.81;4927540;28;20036;-76
2023/08/08 08:48:11;;;;;;;9.10;1.70;;;20.00;99.90;;;18.83;63.04;100110.88;4926190;28;20106;-75
2023/08/08 08:50:39;;;;;;;7.22;1.27;;;19.70;99.90;;;18.42;65.58;100115.41;4923178;28;20066;-76
2023/08/08 08:53:05;;;;;;;9.93;1.77;;;19.20;99.90;;;17.88;67.35;100111.28;4933616;28;20046;-76
2023/08/08 08:55:34;;;;;;;6.07;1.70;;;18.80;99.90;;;17.50;69.34;100111.91;4912017;28;20070;-76
2023/08/08 08:58:01;;;;;;;7.60;1.65;;;18.50;99.90;;;17.41;70.56;100106.41;4905629;28;20051;-76
2023/08/08 09:00:27;;;;;;;8.00;1.75;;;18.50;99.90;;;17.70;70.68;100113.69;4925863;28;20114;-75
2023/08/08 09:03:00;;;;;;;9.75;1.40;;;18.50;99.90;;;17.56;69.65;100106.06;4919874;28;20069;-76
2023/08/08 09:05:27;;;;;;;6.60;1.23;;;18.40;99.90;;;17.39;70.24;100102.19;4944522;28;20126;-75
2023/08/08 09:07:52;;;;;;;5.20;1.38;;;18.30;99.90;;;17.42;69.52;100105.41;4927442;28;20593;-76
2023/08/08 09:10:19;;;;;;;7.15;1.58;;;18.30;99.90;;;17.56;69.48;100100.75;4932820;28;20568;-77
2023/08/08 09:12:46;;;;;;;5.03;1.42;;;18.40;99.90;;;17.71;69.44;100096.75;4928612;28;20410;-76
2023/08/08 09:15:15;;;;;;;7.50;1.48;;;18.40;99.90;;;17.96;67.94;100107.97;4943177;28;20035;-76
2023/08/08 09:17:46;;;;;;;6.15;1.35;;;18.70;99.90;;;18.27;66.99;100100.75;4931429;28;20035;-76
2023/08/08 09:20:17;;;;;;;6.40;1.05;;;18.90;99.90;;;18.41;65.73;100108.38;4928457;28;20492;-76
2023/08/08 09:22:43;;;;;;;6.93;1.50;;;19.00;99.90;;;18.40;66.23;100112.03;4921808;28;20126;-76
2023/08/08 09:25:08;;;;;;;4.82;1.33;;;19.00;99.90;;;18.30;65.68;100115.66;4953182;28;20126;-76
2023/08/08 09:27:36;;;;;;;7.30;1.70;;;19.00;99.90;;;18.29;65.86;100122.78;4920483;28;20035;-76
2023/08/08 09:30:03;;;;;;;2.38;1.13;;;19.00;99.90;;;18.26;66.13;100117.75;4937541;28;20411;-75
2023/08/08 09:32:31;;;;;;;7.28;1.40;;;19.10;99.90;;;18.38;66.24;100115.78;4932093;28;20067;-77
2023/08/08 09:35:02;;;;;;;3.20;1.00;;;19.10;99.90;;;18.46;66.42;100113.28;4943056;28;20035;-77
2023/08/08 09:37:31;;;;;;;8.88;1.67;;;19.30;99.90;;;18.67;65.87;100112.34;4943729;28;20030;-77
2023/08/08 09:40:05;;;;;;;5.63;1.30;;;19.40;99.90;;;19.03;65.77;100114.38;4918615;28;20035;-77
2023/08/08 09:42:35;;;;;;;3.15;1.23;;;19.70;99.90;;;19.29;64.52;100121.78;4934007;28;20031;-77
2023/08/08 09:45:02;;;;;;;6.75;1.42;;;19.90;99.90;;;19.54;63.45;100119.50;4940801;28;20036;-77
2023/08/08 09:47:34;;;;;;;6.88;1.00;;;20.10;99.90;;;19.71;62.42;100116.09;4928540;28;20035;-77
2023/08/08 09:50:04;;;;;;;8.13;1.13;;;20.30;99.90;;;19.84;61.87;100116.63;4940444;28;20452;-77
2023/08/08 09:52:37;;;;;;;7.45;1.10;;;20.40;99.90;;;19.75;60.15;100114.81;4958487;28;20027;-76
2023/08/08 09:55:04;;;;;;;11.10;1.10;;;20.40;99.90;;;19.79;59.81;100110.03;4943980;28;20413;-78
2023/08/08 09:57:33;;;;;;;4.22;1.38;;;20.40;99.90;;;19.65;59.83;100105.97;4924973;28;20035;-78
2023/08/08 10:00:06;;;;;;;10.65;1.98;;;20.30;99.90;;;19.56;59.57;100106.84;4941342;28;20035;-77
2023/08/08 10:02:35;;;;;;;6.45;1.00;;;20.40;99.90;;;19.87;58.64;100111.00;4942639;28;20058;-77
2023/08/08 10:05:04;;;;;;;5.75;1.30;;;20.50;99.90;;;20.00;58.61;100112.47;4932514;28;20040;-77
2023/08/08 10:07:37;;;;;;;7.68;1.05;;;20.70;99.90;;;20.28;58.61;100113.34;4904340;28;20063;-77
2023/08/08 10:10:09;;;;;;;4.78;1.40;;;20.90;99.90;;;20.53;57.14;100106.44;4915070;28;20486;-78